Time;durP1;ratioP1;P1;durP2;ratioP2;P2;SDS_P1;SDS_P2;PMS_P1;PMS_P2;Temp;Humidity;BMP_temperature;BMP_pressure;BME280_temperature;BME280_humidity;BME280_pressure;Samples;Min_cycle;Max_cycle;Signal;HPM_P1;HPM_P2
2022/04/29 00:02:18;;;;;;;10.37;8.87;;;;;;;4.47;100.00;98105.03;5026002;28;20739;-54
2022/04/29 00:04:46;;;;;;;9.17;8.47;;;;;;;4.40;100.00;98109.09;5026400;28;20281;-51
2022/04/29 00:07:15;;;;;;;10.50;9.40;;;;;;;4.43;100.00;98109.69;5041401;28;20286;-51
2022/04/29 00:09:43;;;;;;;9.10;8.40;;;;;;;4.42;100.00;98118.50;5009144;28;20986;-55
2022/04/29 00:12:12;;;;;;;8.03;7.43;;;;;;;4.32;100.00;98114.97;5045612;28;20420;-59
2022/04/29 00:14:40;;;;;;;9.37;8.57;;;;;;;4.27;100.00;98110.06;4995022;28;20587;-54
2022/04/29 00:17:10;;;;;;;9.07;8.17;;;;;;;4.18;100.00;98113.41;5028509;28;20217;-57
2022/04/29 00:19:40;;;;;;;9.50;8.80;;;;;;;4.10;100.00;98108.75;5027818;28;20219;-57
2022/04/29 00:22:09;;;;;;;9.13;8.40;;;;;;;4.00;100.00;98113.06;5045932;28;20198;-58
2022/04/29 00:24:37;;;;;;;9.90;8.93;;;;;;;3.99;100.00;98108.78;5036947;28;20302;-57
2022/04/29 00:27:06;;;;;;;9.60;8.80;;;;;;;3.96;100.00;98104.59;5043798;28;20353;-58
2022/04/29 00:29:35;;;;;;;9.17;8.37;;;;;;;3.93;100.00;98115.31;5008714;28;20361;-59
2022/04/29 00:32:04;;;;;;;10.83;9.37;;;;;;;3.96;100.00;98107.22;5049005;28;20469;-56
2022/04/29 00:34:32;;;;;;;10.07;9.27;;;;;;;3.94;100.00;98109.13;5012067;28;20207;-57
2022/04/29 00:37:02;;;;;;;10.23;9.43;;;;;;;3.95;100.00;98102.09;5025148;28;20750;-54
2022/04/29 00:39:30;;;;;;;9.43;8.73;;;;;;;4.01;100.00;98105.09;5032400;28;20254;-56
2022/04/29 00:41:59;;;;;;;9.07;8.43;;;;;;;3.99;100.00;98106.16;5043777;28;20337;-56
2022/04/29 00:44:27;;;;;;;10.00;9.23;;;;;;;4.00;100.00;98102.56;5042960;28;20252;-60
2022/04/29 00:46:55;;;;;;;10.50;9.70;;;;;;;3.99;100.00;98091.25;4998989;28;20219;-56
2022/04/29 00:49:23;;;;;;;10.13;9.33;;;;;;;3.94;100.00;98097.81;5021201;28;20255;-56
2022/04/29 00:51:51;;;;;;;10.37;9.40;;;;;;;3.82;100.00;98089.09;5012045;28;20888;-57
2022/04/29 00:54:26;;;;;;;9.83;9.07;;;;;;;3.80;100.00;98094.47;5046807;28;20282;-61
2022/04/29 00:56:54;;;;;;;9.13;8.40;;;;;;;3.78;100.00;98098.97;5045320;28;22017;-59
2022/04/29 00:59:27;;;;;;;9.00;8.40;;;;;;;3.82;100.00;98083.88;5039270;28;20754;-60
2022/04/29 01:01:56;;;;;;;9.20;8.30;;;;;;;3.79;100.00;98081.47;5008461;28;20207;-53
2022/04/29 01:04:28;;;;;;;10.27;9.37;;;;;;;3.68;100.00;98085.78;5024229;28;20206;-55
2022/04/29 01:06:56;;;;;;;9.53;8.80;;;;;;;3.58;100.00;98083.03;5014935;28;20301;-56
2022/04/29 01:09:25;;;;;;;9.33;8.63;;;;;;;3.58;100.00;98079.53;5045835;28;20650;-56
2022/04/29 01:11:53;;;;;;;8.80;7.90;;;;;;;3.59;100.00;98074.19;5032407;28;20211;-57
2022/04/29 01:14:22;;;;;;;9.27;8.47;;;;;;;3.46;100.00;98074.31;5039289;28;20215;-58
2022/04/29 01:16:50;;;;;;;9.87;8.97;;;;;;;3.41;100.00;98070.34;5046540;28;20220;-55
2022/04/29 01:19:18;;;;;;;9.57;8.77;;;;;;;3.36;100.00;98065.47;5008549;28;20225;-59
2022/04/29 01:21:47;;;;;;;10.93;10.02;;;;;;;3.30;100.00;98068.56;5004930;28;20443;-56
2022/04/29 01:24:16;;;;;;;9.03;8.37;;;;;;;3.33;100.00;98065.72;5030215;28;20214;-59
2022/04/29 01:26:44;;;;;;;9.20;8.40;;;;;;;3.24;100.00;98071.66;5025645;28;20243;-55
2022/04/29 01:29:13;;;;;;;9.17;8.40;;;;;;;3.23;100.00;98067.38;5045176;28;20239;-58
2022/04/29 01:31:41;;;;;;;9.97;9.07;;;;;;;3.18;100.00;98065.09;5043734;28;20195;-59
2022/04/29 01:34:10;;;;;;;9.57;8.67;;;;;;;3.17;100.00;98066.84;5012562;28;20594;-58
2022/04/29 01:36:38;;;;;;;9.37;8.67;;;;;;;3.16;100.00;98066.97;5025753;28;20900;-57
2022/04/29 01:39:06;;;;;;;10.03;9.17;;;;;;;3.12;100.00;98070.78;5026890;28;20256;-59
2022/04/29 01:41:36;;;;;;;10.10;9.33;;;;;;;3.09;100.00;98071.84;5004999;28;21019;-55
2022/04/29 01:44:05;;;;;;;10.47;9.37;;;;;;;3.08;100.00;98069.34;5027867;28;20338;-58
2022/04/29 01:46:33;;;;;;;10.23;9.43;;;;;;;3.05;100.00;98070.41;5034878;28;20310;-54
2022/04/29 01:49:01;;;;;;;10.57;9.77;;;;;;;2.98;100.00;98074.44;4996424;28;20583;-54
2022/04/29 01:51:29;;;;;;;9.80;9.00;;;;;;;2.97;100.00;98064.91;5043891;28;20199;-54
2022/04/29 01:53:57;;;;;;;9.83;9.10;;;;;;;2.92;100.00;98074.88;5011730;28;20209;-54
2022/04/29 01:56:33;;;;;;;9.63;8.83;;;;;;;2.95;100.00;98070.25;5043110;28;20198;-53
2022/04/29 01:59:04;;;;;;;10.83;10.03;;;;;;;2.89;100.00;98078.56;5044411;28;20256;-56
2022/04/29 02:01:33;;;;;;;9.13;8.43;;;;;;;2.83;100.00;98071.16;5043926;28;20203;-56
2022/04/29 02:04:02;;;;;;;10.53;9.73;;;;;;;2.80;100.00;98066.97;5014567;28;20822;-58
2022/04/29 02:06:30;;;;;;;10.00;9.20;;;;;;;2.78;100.00;98070.66;5045241;28;20963;-54
2022/04/29 02:08:58;;;;;;;10.73;9.73;;;;;;;2.76;100.00;98076.00;5021515;28;20258;-54
2022/04/29 02:11:27;;;;;;;10.93;10.03;;;;;;;2.71;100.00;98062.41;5031770;28;20273;-52
2022/04/29 02:13:55;;;;;;;10.00;9.13;;;;;;;2.69;100.00;98065.16;5045825;28;20239;-53
2022/04/29 02:16:24;;;;;;;10.03;9.23;;;;;;;2.72;100.00;98062.31;5043041;28;20299;-57
2022/04/29 02:18:52;;;;;;;9.67;8.90;;;;;;;2.71;100.00;98057.19;5000575;28;20219;-53
2022/04/29 02:21:20;;;;;;;10.10;9.30;;;;;;;2.69;100.00;98053.84;5043619;28;20276;-53
2022/04/29 02:23:49;;;;;;;11.53;10.63;;;;;;;2.64;100.00;98055.97;5016600;28;20206;-56
2022/04/29 02:26:17;;;;;;;11.67;10.73;;;;;;;2.65;100.00;98052.41;5041412;28;20227;-56
2022/04/29 02:28:45;;;;;;;10.30;9.50;;;;;;;2.60;100.00;98052.72;5024703;28;20866;-54
2022/04/29 02:31:13;;;;;;;10.30;9.30;;;;;;;2.56;100.00;98046.06;5044572;28;20211;-56
2022/04/29 02:33:43;;;;;;;11.83;10.73;;;;;;;2.54;100.00;98045.34;5039421;28;20829;-52
2022/04/29 02:36:11;;;;;;;10.37;9.57;;;;;;;2.54;100.00;98045.34;4999697;28;20270;-55
2022/04/29 02:38:44;;;;;;;10.90;10.00;;;;;;;2.54;100.00;98047.94;5043704;28;21005;-55
2022/04/29 02:41:12;;;;;;;10.93;9.97;;;;;;;2.50;100.00;98049.97;5003107;28;20304;-59
2022/04/29 02:43:41;;;;;;;10.67;9.67;;;;;;;2.54;100.00;98045.34;5043497;28;20199;-55
2022/04/29 02:46:10;;;;;;;10.47;9.57;;;;;;;2.48;100.00;98043.16;5028389;28;20662;-58
2022/04/29 02:48:38;;;;;;;11.30;10.27;;;;;;;2.46;100.00;98043.25;5035584;28;20257;-57
2022/04/29 02:51:07;;;;;;;10.07;9.27;;;;;;;2.42;100.00;98044.44;4999328;28;20304;-58
2022/04/29 02:53:37;;;;;;;10.00;9.17;;;;;;;2.38;100.00;98036.00;5045622;28;20203;-58
2022/04/29 02:56:05;;;;;;;10.73;9.63;;;;;;;2.36;100.00;98047.50;5025841;28;20311;-53
2022/04/29 02:58:33;;;;;;;10.53;9.53;;;;;;;2.31;100.00;98055.69;5036335;28;20940;-56
2022/04/29 03:01:02;;;;;;;10.33;9.33;;;;;;;2.28;100.00;98046.28;5022612;28;20230;-57
2022/04/29 03:03:31;;;;;;;11.10;9.97;;;;;;;2.26;100.00;98049.94;5016870;28;20495;-56
2022/04/29 03:05:59;;;;;;;9.73;9.03;;;;;;;2.23;100.00;98050.16;5044732;28;20207;-54
2022/04/29 03:08:28;;;;;;;10.80;9.70;;;;;;;2.25;100.00;98041.28;4994466;28;20841;-59
2022/04/29 03:10:56;;;;;;;10.00;9.10;;;;;;;2.20;100.00;98047.75;5021942;28;20781;-53
2022/04/29 03:13:26;;;;;;;9.90;9.10;;;;;;;2.16;100.00;98042.75;5039908;28;20330;-54
2022/04/29 03:15:54;;;;;;;9.67;8.87;;;;;;;2.18;100.00;98047.91;5026110;28;20833;-52
2022/04/29 03:18:23;;;;;;;9.50;8.67;;;;;;;2.19;100.00;98049.56;5017899;28;20206;-57
2022/04/29 03:20:56;;;;;;;10.07;9.27;;;;;;;2.10;100.00;98043.19;5045654;28;20234;-49
2022/04/29 03:23:25;;;;;;;9.63;8.77;;;;;;;2.10;100.00;98037.16;5002416;28;20227;-56
2022/04/29 03:25:55;;;;;;;9.63;8.67;;;;;;;2.15;100.00;98035.03;5039339;28;20231;-52
2022/04/29 03:28:23;;;;;;;9.90;9.00;;;;;;;2.17;100.00;98033.97;5019682;28;20349;-58
2022/04/29 03:30:51;;;;;;;11.30;10.23;;;;;;;2.11;100.00;98030.97;5016838;28;20773;-54
2022/04/29 03:33:20;;;;;;;9.77;8.97;;;;;;;2.06;100.00;98028.69;5013042;28;21027;-51
2022/04/29 03:35:50;;;;;;;10.63;9.57;;;;;;;2.19;100.00;98026.03;5043720;28;20238;-53
2022/04/29 03:38:23;;;;;;;11.27;10.37;;;;;;;2.13;100.00;98029.91;4992415;28;20815;-58
2022/04/29 03:40:52;;;;;;;10.87;9.97;;;;;;;2.13;100.00;98026.47;5044127;28;20222;-54
2022/04/29 03:43:22;;;;;;;11.37;10.33;;;;;;;2.08;100.00;98026.78;5004034;28;20215;-53
2022/04/29 03:45:50;;;;;;;14.15;13.07;;;;;;;2.11;100.00;98031.78;5039041;28;20557;-56
2022/04/29 03:48:19;;;;;;;11.17;10.27;;;;;;;2.10;100.00;98031.94;5019027;28;20269;-54
2022/04/29 03:50:48;;;;;;;10.70;9.73;;;;;;;2.10;100.00;98024.09;5008570;28;20754;-55
2022/04/29 03:53:16;;;;;;;12.13;9.80;;;;;;;2.06;100.00;98039.13;5037277;28;20662;-58
2022/04/29 03:55:44;;;;;;;12.00;10.90;;;;;;;2.03;100.00;98031.50;4998258;28;20298;-56
2022/04/29 03:58:12;;;;;;;11.47;10.57;;;;;;;1.98;100.00;98037.06;5025817;28;20292;-55
2022/04/29 04:00:41;;;;;;;12.13;10.97;;;;;;;1.95;100.00;98033.84;5040798;28;20707;-56
2022/04/29 04:03:10;;;;;;;12.57;10.47;;;;;;;1.96;100.00;98044.16;5024268;28;20295;-56
2022/04/29 04:06:49;;;;;;;10.23;9.43;;;;;;;1.94;100.00;98037.41;5021457;28;20210;-56
2022/04/29 04:08:27;;;;;;;12.00;10.90;;;;;;;1.93;100.00;98044.41;5032840;28;20234;-58
2022/04/29 04:10:55;;;;;;;11.00;10.07;;;;;;;2.10;100.00;98045.81;5015073;28;20231;-59
2022/04/29 04:13:23;;;;;;;11.07;10.17;;;;;;;2.03;100.00;98041.97;5023847;28;20759;-56
2022/04/29 04:15:53;;;;;;;11.23;10.33;;;;;;;2.01;100.00;98043.88;5040036;28;20793;-59
2022/04/29 04:18:21;;;;;;;11.83;10.83;;;;;;;2.07;100.00;98050.41;5023326;28;20700;-52
2022/04/29 04:20:49;;;;;;;11.47;10.47;;;;;;;2.11;100.00;98049.28;5019346;28;20955;-58
2022/04/29 04:23:17;;;;;;;11.53;10.43;;;;;;;2.11;100.00;98054.50;5040534;28;20203;-59
2022/04/29 04:25:46;;;;;;;14.10;12.87;;;;;;;2.14;100.00;98046.44;4993717;28;20610;-57
2022/04/29 04:28:14;;;;;;;13.40;12.07;;;;;;;2.17;100.00;98049.66;5020079;28;20298;-52
2022/04/29 04:30:42;;;;;;;11.93;10.93;;;;;;;2.28;100.00;98055.91;5043253;28;20776;-54
2022/04/29 04:33:12;;;;;;;11.53;10.63;;;;;;;2.28;100.00;98059.34;5041898;28;20281;-58
2022/04/29 04:35:40;;;;;;;11.90;10.83;;;;;;;2.38;100.00;98056.06;5005520;28;20206;-59
2022/04/29 04:38:09;;;;;;;11.97;10.80;;;;;;;2.38;100.00;98056.06;5038551;28;20228;-53
2022/04/29 04:40:37;;;;;;;11.27;10.27;;;;;;;2.49;100.00;98055.31;4991770;28;20313;-55
2022/04/29 04:43:05;;;;;;;11.43;10.43;;;;;;;2.46;100.00;98066.81;5042140;28;20225;-56
2022/04/29 04:45:33;;;;;;;12.33;11.13;;;;;;;2.47;100.00;98063.28;5015686;28;20361;-56
2022/04/29 04:48:01;;;;;;;11.93;10.93;;;;;;;2.58;100.00;98062.47;5042421;28;20307;-53
2022/04/29 04:50:31;;;;;;;10.93;10.03;;;;;;;2.71;100.00;98065.03;5019873;28;20280;-57
2022/04/29 04:52:59;;;;;;;11.17;10.20;;;;;;;2.79;100.00;98062.69;5020960;28;20325;-58
2022/04/29 04:55:28;;;;;;;11.37;10.37;;;;;;;2.83;100.00;98060.69;5035418;28;20207;-59
2022/04/29 04:57:56;;;;;;;11.47;10.53;;;;;;;2.87;100.00;98062.13;5022540;28;20207;-55
2022/04/29 05:00:24;;;;;;;11.63;10.63;;;;;;;2.92;100.00;98061.81;5027223;28;20280;-56
2022/04/29 05:02:52;;;;;;;11.30;10.40;;;;;;;2.98;100.00;98066.56;5044990;28;20662;-54
2022/04/29 05:05:21;;;;;;;13.23;10.80;;;;;;;3.22;100.00;98065.66;5031477;28;20207;-57
2022/04/29 05:07:50;;;;;;;11.97;10.77;;;;;;;3.16;100.00;98059.13;5023728;28;22192;-51
2022/04/29 05:10:20;;;;;;;10.87;9.97;;;;;;;3.30;100.00;98063.34;5049267;28;20324;-55
2022/04/29 05:12:49;;;;;;;11.90;10.90;;;;;;;3.46;100.00;98076.09;5004089;28;20207;-58
2022/04/29 05:15:17;;;;;;;12.23;11.20;;;;;;;3.51;100.00;98075.72;5025114;28;20311;-55
2022/04/29 05:17:45;;;;;;;12.67;11.03;;;;;;;3.69;100.00;98076.97;5041808;28;21525;-58
2022/04/29 05:20:15;;;;;;;11.90;10.90;;;;;;;3.96;100.00;98077.56;5032003;28;20706;-52
2022/04/29 05:22:46;;;;;;;13.03;11.73;;;;;;;3.97;100.00;98081.84;5005413;28;20203;-57
2022/04/29 05:25:16;;;;;;;13.57;12.27;;;;;;;4.06;100.00;98075.88;5046794;28;20222;-56
2022/04/29 05:27:44;;;;;;;11.57;10.63;;;;;;;4.26;100.00;98078.72;4995856;28;20272;-55
2022/04/29 05:30:13;;;;;;;10.77;9.97;;;;;;;4.56;100.00;98078.03;5040842;28;20766;-56
2022/04/29 05:32:41;;;;;;;11.97;10.87;;;;;;;4.78;100.00;98082.38;4993537;28;20840;-57
2022/04/29 05:35:10;;;;;;;10.67;9.70;;;;;;;4.87;100.00;98074.72;5042414;28;20639;-55
2022/04/29 05:37:40;;;;;;;10.93;10.13;;;;;;;5.03;100.00;98082.16;5026990;28;20319;-56
2022/04/29 05:42:57;;;;;;;10.47;9.57;;;;;;;5.52;100.00;98079.06;5001756;28;20215;-52
2022/04/29 05:45:25;;;;;;;10.57;9.67;;;;;;;5.63;100.00;98082.41;5039685;28;20632;-55
2022/04/29 05:47:53;;;;;;;10.40;9.50;;;;;;;5.78;100.00;98080.28;5023908;28;20242;-57
2022/04/29 05:50:21;;;;;;;10.83;9.93;;;;;;;5.74;100.00;98078.06;5035966;28;20308;-54
2022/04/29 05:52:49;;;;;;;10.20;9.23;;;;;;;5.77;100.00;98075.16;5025801;28;20251;-59
2022/04/29 05:55:17;;;;;;;10.57;9.77;;;;;;;6.00;100.00;98075.81;5028284;28;20319;-58
2022/04/29 05:58:07;;;;;;;9.63;8.77;;;;;;;6.31;100.00;98080.22;5043345;28;20203;-55
2022/04/29 06:00:36;;;;;;;10.23;9.10;;;;;;;6.60;100.00;98082.91;5010937;28;20300;-56
2022/04/29 06:03:05;;;;;;;8.93;8.33;;;;;;;6.85;100.00;98082.53;5027356;28;20253;-56
2022/04/29 06:05:33;;;;;;;9.80;9.00;;;;;;;7.03;100.00;98086.13;5025705;28;20325;-58
2022/04/29 06:08:04;;;;;;;9.43;8.73;;;;;;;7.27;100.00;98069.06;5027123;28;20211;-59
2022/04/29 06:10:32;;;;;;;9.73;8.70;;;;;;;7.34;100.00;98071.94;5026458;28;20258;-58
2022/04/29 06:13:00;;;;;;;9.33;8.63;;;;;;;7.59;100.00;98072.31;5040655;28;20708;-57
2022/04/29 06:15:30;;;;;;;8.63;8.03;;;;;;;7.67;100.00;98073.25;5003666;28;20288;-56
2022/04/29 06:17:58;;;;;;;8.47;7.87;;;;;;;7.71;100.00;98079.06;5023656;28;20211;-57
2022/04/29 06:20:26;;;;;;;9.20;7.67;;;;;;;7.89;100.00;98073.88;5040580;28;20284;-53
2022/04/29 06:22:54;;;;;;;8.57;7.87;;;;;;;8.19;100.00;98073.75;5030322;28;20231;-54
2022/04/29 06:25:23;;;;;;;8.97;8.10;;;;;;;8.36;100.00;98078.25;5018245;28;20740;-56
2022/04/29 06:27:51;;;;;;;8.40;7.80;;;;;;;8.38;100.00;98078.91;5040691;28;20214;-59
2022/04/29 06:30:19;;;;;;;7.87;7.27;;;;;;;8.38;100.00;98078.91;5001794;28;20223;-55
2022/04/29 06:33:09;;;;;;;7.43;6.93;;;;;;;8.70;100.00;98074.16;5037731;28;20219;-55
2022/04/29 06:35:41;;;;;;;7.93;7.33;;;;;;;8.59;100.00;98083.16;5028314;28;20472;-55
2022/04/29 06:38:09;;;;;;;9.87;8.13;;;;;;;8.96;100.00;98083.97;5026993;28;20675;-54
2022/04/29 06:40:38;;;;;;;8.00;7.43;;;;;;;9.14;100.00;98081.34;5028347;28;20294;-57
2022/04/29 06:43:06;;;;;;;8.07;7.37;;;;;;;9.20;100.00;98083.34;5028645;28;20280;-56
2022/04/29 06:45:34;;;;;;;7.73;7.13;;;;;;;9.30;100.00;98082.47;4994922;28;20720;-56
2022/04/29 06:48:02;;;;;;;8.47;7.70;;;;;;;9.28;100.00;98074.66;5042909;28;20279;-55
2022/04/29 06:50:32;;;;;;;7.70;7.07;;;;;;;9.52;100.00;98074.00;5025596;28;20223;-53
2022/04/29 06:53:01;;;;;;;8.03;7.30;;;;;;;9.30;100.00;98079.81;5030776;28;20280;-55
2022/04/29 06:55:29;;;;;;;7.47;6.77;;;;;;;9.59;100.00;98076.88;5030143;28;20432;-57
2022/04/29 06:57:57;;;;;;;7.70;7.00;;;;;;;9.51;100.00;98080.28;5025474;28;21014;-57
2022/04/29 07:00:26;;;;;;;6.70;6.30;;;;;;;9.78;100.00;98081.13;5042063;28;21694;-54
2022/04/29 07:02:56;;;;;;;8.33;7.70;;;;;;;9.83;100.00;98072.69;5000619;28;20214;-53
2022/04/29 07:05:24;;;;;;;7.40;6.80;;;;;;;10.05;100.00;98073.16;5022495;28;20690;-58
2022/04/29 07:07:54;;;;;;;9.30;7.40;;;;;;;10.69;100.00;98081.50;5031112;28;20225;-57
2022/04/29 07:10:22;;;;;;;7.67;6.93;;;;;;;10.83;100.00;98076.56;5037600;28;20818;-55
2022/04/29 07:12:50;;;;;;;7.77;7.03;;;;;;;10.80;100.00;98075.06;5029061;28;20242;-57
2022/04/29 07:15:19;;;;;;;7.80;7.10;;;;;;;10.35;100.00;98074.41;5038944;28;20199;-57
2022/04/29 07:17:47;;;;;;;7.10;6.60;;;;;;;10.77;100.00;98071.88;5002585;28;20330;-56
2022/04/29 07:20:16;;;;;;;7.50;6.87;;;;;;;10.86;100.00;98070.94;5025267;28;20315;-57
2022/04/29 07:22:44;;;;;;;7.60;7.00;;;;;;;10.94;100.00;98073.59;5042474;28;20658;-59
2022/04/29 07:25:14;;;;;;;7.43;6.83;;;;;;;11.11;100.00;98070.94;5024798;28;20303;-58
2022/04/29 07:27:42;;;;;;;7.90;7.20;;;;;;;11.59;100.00;98065.75;5015866;28;20451;-60
2022/04/29 07:30:12;;;;;;;7.00;6.50;;;;;;;11.52;100.00;98067.44;5040161;28;21004;-54
2022/04/29 07:32:40;;;;;;;7.37;6.77;;;;;;;11.80;100.00;98061.75;5039888;28;20454;-56
2022/04/29 07:43:27;;;;;;;6.93;6.33;;;;;;;13.02;100.00;98063.94;5009489;28;20373;-54
2022/04/29 07:45:55;;;;;;;6.37;5.97;;;;;;;12.92;100.00;98052.72;5040448;28;20760;-58
2022/04/29 07:48:24;;;;;;;7.07;6.47;;;;;;;12.62;100.00;98065.06;5010005;28;22290;-57
2022/04/29 07:50:52;;;;;;;6.63;6.13;;;;;;;12.88;100.00;98056.75;5042538;28;20296;-55
2022/04/29 07:53:21;;;;;;;9.70;6.93;;;;;;;13.16;100.00;98057.03;5020960;28;20317;-59
2022/04/29 07:55:50;;;;;;;6.47;5.97;;;;;;;13.23;100.00;98062.47;5028702;28;20298;-57
2022/04/29 07:58:19;;;;;;;5.80;5.50;;;;;;;13.68;100.00;98051.94;5029796;28;20298;-59
2022/04/29 08:00:48;;;;;;;7.43;6.83;;;;;;;13.79;100.00;98058.63;5036380;28;20830;-55
2022/04/29 08:03:36;;;;;;;6.37;5.77;;;;;;;13.90;100.00;98054.69;4997132;28;20335;-54
2022/04/29 08:06:05;;;;;;;6.30;5.80;;;;;;;13.88;99.76;98049.56;5045095;28;20902;-56
2022/04/29 08:08:34;;;;;;;7.03;6.43;;;;;;;13.97;100.00;98044.94;5017810;28;20215;-56
2022/04/29 08:11:04;;;;;;;6.77;6.27;;;;;;;14.15;100.00;98046.41;5030043;28;20787;-57
2022/04/29 08:13:32;;;;;;;7.30;6.70;;;;;;;14.32;100.00;98055.84;5019793;28;20734;-58
2022/04/29 08:16:20;;;;;;;8.07;7.37;;;;;;;13.88;100.00;98054.03;5025993;28;20203;-58
2022/04/29 08:18:48;;;;;;;7.80;7.10;;;;;;;14.20;100.00;98038.69;5038331;28;20554;-56
2022/04/29 08:21:17;;;;;;;7.87;7.00;;;;;;;14.30;99.39;98044.53;4994182;28;20215;-59
2022/04/29 08:23:45;;;;;;;8.10;7.50;;;;;;;14.13;100.00;98035.13;5038120;28;20238;-58
2022/04/29 08:26:15;;;;;;;8.13;7.33;;;;;;;14.45;99.49;98033.03;5032826;28;20266;-57
2022/04/29 08:28:43;;;;;;;10.30;7.03;;;;;;;14.33;97.66;98035.34;5029448;28;20272;-56
2022/04/29 08:31:11;;;;;;;7.33;6.63;;;;;;;14.27;100.00;98026.25;5030464;28;20239;-55
2022/04/29 08:33:40;;;;;;;6.83;5.83;;;;;;;14.29;94.52;98028.75;5047458;28;20791;-55
2022/04/29 08:36:08;;;;;;;7.70;6.97;;;;;;;14.32;95.64;98029.19;5003327;28;20219;-58
2022/04/29 08:38:37;;;;;;;7.00;6.47;;;;;;;14.59;94.95;98029.50;5028641;28;20345;-51
2022/04/29 08:41:06;;;;;;;6.97;6.37;;;;;;;14.90;90.02;98031.06;5044311;28;20306;-58
2022/04/29 08:43:37;;;;;;;7.00;6.50;;;;;;;15.10;89.10;98027.72;5015182;28;21012;-59
2022/04/29 08:46:11;;;;;;;7.03;6.53;;;;;;;15.17;88.74;98023.28;5028213;28;20298;-58
2022/04/29 08:48:41;;;;;;;7.10;6.50;;;;;;;15.36;82.48;98022.81;5042669;28;20470;-53
2022/04/29 08:51:09;;;;;;;6.50;6.00;;;;;;;15.45;80.44;98016.31;5003282;28;20302;-56
2022/04/29 08:53:37;;;;;;;9.63;6.50;;;;;;;15.53;77.07;98010.81;5026918;28;20771;-59
2022/04/29 08:58:54;;;;;;;6.97;6.47;;;;;;;15.61;78.81;98005.31;5031392;28;20920;-54
2022/04/29 09:01:22;;;;;;;6.87;6.13;;;;;;;15.79;82.88;97995.97;5011344;28;20307;-59
2022/04/29 09:03:51;;;;;;;7.30;6.60;;;;;;;15.72;70.43;97998.59;5044843;28;20207;-55
2022/04/29 09:06:22;;;;;;;7.83;5.90;;;;;;;15.87;76.57;97992.28;5014554;28;20203;-56
2022/04/29 09:08:51;;;;;;;7.33;6.83;;;;;;;15.95;60.77;98005.53;5040323;28;20239;-58
2022/04/29 09:11:23;;;;;;;6.57;6.10;;;;;;;15.99;57.75;97996.09;5027272;28;20239;-55
2022/04/29 09:13:53;;;;;;;6.80;6.30;;;;;;;15.95;61.85;97991.34;5024823;28;20723;-54
2022/04/29 09:16:21;;;;;;;6.03;5.37;;;;;;;16.29;50.74;97992.28;5022394;28;20211;-57
2022/04/29 09:18:53;;;;;;;6.40;5.83;;;;;;;16.42;58.49;97992.31;5044055;28;20216;-52
2022/04/29 09:21:24;;;;;;;6.83;6.23;;;;;;;16.00;58.41;97984.38;5011508;28;20288;-59
2022/04/29 09:23:54;;;;;;;6.53;5.80;;;;;;;15.89;54.37;97984.94;5043484;28;20204;-55
2022/04/29 09:26:25;;;;;;;6.23;5.73;;;;;;;15.62;52.51;97982.09;5023433;28;20231;-57
2022/04/29 09:28:57;;;;;;;5.43;5.13;;;;;;;15.91;51.91;97981.03;5029460;28;20218;-57
2022/04/29 09:31:25;;;;;;;6.70;6.20;;;;;;;16.12;51.29;97978.44;5029546;28;20305;-58
2022/04/29 09:34:13;;;;;;;6.83;6.23;;;;;;;16.40;51.02;97978.31;5040527;28;20227;-55
2022/04/29 09:36:41;;;;;;;5.70;5.20;;;;;;;17.00;51.67;97968.75;5002994;28;21895;-57
2022/04/29 09:39:27;;;;;;;5.80;5.40;;;;;;;17.16;50.85;97979.06;5043618;28;20386;-58
2022/04/29 09:41:56;;;;;;;5.50;5.17;;;;;;;17.20;49.79;97980.28;5041608;28;20207;-53
2022/04/29 09:44:29;;;;;;;6.63;5.47;;;;;;;17.44;47.56;97969.13;5011777;28;20290;-53
2022/04/29 09:46:58;;;;;;;6.90;5.70;;;;;;;17.65;45.19;97962.69;5033265;28;20383;-59
2022/04/29 09:49:27;;;;;;;9.83;6.00;;;;;;;17.68;46.65;97964.13;5031425;28;20732;-54
2022/04/29 09:51:56;;;;;;;5.33;5.03;;;;;;;17.91;44.49;97961.78;5007840;28;20207;-59
2022/04/29 09:54:26;;;;;;;5.33;4.83;;;;;;;18.06;42.47;97961.53;5041212;28;20219;-58
2022/04/29 09:57:09;;;;;;;5.07;4.67;;;;;;;18.12;40.06;97956.34;5024196;28;20210;-59
2022/04/29 09:59:41;;;;;;;4.57;4.20;;;;;;;18.04;40.67;97960.13;5028957;28;20422;-59
2022/04/29 10:02:10;;;;;;;4.10;3.90;;;;;;;17.83;40.88;97950.47;5039830;28;20429;-56
2022/04/29 10:04:41;;;;;;;4.33;4.03;;;;;;;17.91;41.53;97945.69;5030976;28;20594;-57
2022/04/29 10:07:12;;;;;;;4.90;4.50;;;;;;;18.04;41.49;97946.72;5042083;28;20203;-61
2022/04/29 10:09:42;;;;;;;4.93;4.53;;;;;;;18.08;40.46;97947.94;4997658;28;20314;-57
2022/04/29 10:12:13;;;;;;;5.00;4.50;;;;;;;18.22;37.11;97952.19;5021441;28;20280;-55
2022/04/29 10:14:44;;;;;;;4.37;4.07;;;;;;;18.21;40.45;97950.53;5033339;28;20292;-55
2022/04/29 10:22:50;;;;;;;4.57;4.20;;;;;;;18.11;39.22;97944.81;5040741;28;20204;-58
2022/04/29 10:25:20;;;;;;;4.60;4.20;;;;;;;17.95;39.01;97938.06;5003872;28;20786;-56
2022/04/29 10:27:49;;;;;;;5.37;4.87;;;;;;;18.05;36.82;97940.31;5020976;28;20616;-56
2022/04/29 10:30:27;;;;;;;8.00;5.07;;;;;;;17.80;37.52;97946.34;5030937;28;20390;-57
2022/04/29 10:33:06;;;;;;;5.13;4.83;;;;;;;17.98;39.31;97936.78;5040947;28;20259;-57
2022/04/29 10:35:57;;;;;;;4.53;4.20;;;;;;;18.10;37.59;97936.97;5025092;28;20784;-56
2022/04/29 10:38:27;;;;;;;4.63;4.33;;;;;;;17.67;39.58;97933.81;5039263;28;20308;-60
2022/04/29 10:41:19;;;;;;;5.27;4.83;;;;;;;18.14;39.07;97933.66;4994081;28;20335;-59
2022/04/29 10:44:04;;;;;;;5.00;4.60;;;;;;;18.52;38.58;97938.19;5029463;28;20207;-59
2022/04/29 10:46:35;;;;;;;4.67;4.37;;;;;;;18.49;38.95;97929.72;5049162;28;20290;-57
2022/04/29 10:49:28;;;;;;;4.77;4.37;;;;;;;18.30;36.76;97926.97;5022483;28;20297;-57
2022/04/29 10:51:59;;;;;;;4.63;4.27;;;;;;;18.33;35.31;97918.50;5026361;28;20347;-58
2022/04/29 10:54:48;;;;;;;5.10;4.70;;;;;;;18.22;37.10;97905.78;5044435;28;20255;-54
2022/04/29 10:57:17;;;;;;;4.33;4.03;;;;;;;18.29;40.20;97919.13;5008391;28;20430;-57
2022/04/29 10:59:57;;;;;;;4.33;3.93;;;;;;;18.74;39.18;97904.78;5037466;28;20223;-58
2022/04/29 11:02:29;;;;;;;4.57;4.17;;;;;;;18.86;39.29;97902.22;5028183;28;20607;-60
2022/04/29 11:04:59;;;;;;;4.20;3.80;;;;;;;18.87;38.13;97903.84;5027106;28;20203;-59
2022/04/29 11:07:44;;;;;;;3.80;3.50;;;;;;;18.97;37.50;97898.00;5029909;28;20215;-59
2022/04/29 11:10:17;;;;;;;4.80;3.60;;;;;;;18.95;37.05;97896.34;5038566;28;20563;-59
2022/04/29 11:12:59;;;;;;;4.33;3.90;;;;;;;18.77;37.38;97898.97;5003758;28;20305;-56
2022/04/29 11:15:41;;;;;;;4.03;3.73;;;;;;;18.78;38.02;97898.75;5045424;28;20310;-56
2022/04/29 11:18:20;;;;;;;4.33;3.93;;;;;;;18.84;38.17;97888.19;5025028;28;20264;-55
2022/04/29 11:20:49;;;;;;;4.23;3.93;;;;;;;18.58;38.22;97890.88;5026963;28;20238;-56
2022/04/29 11:26:12;;;;;;;4.23;3.80;;;;;;;18.52;38.61;97886.34;4998601;28;20359;-55
2022/04/29 11:28:41;;;;;;;4.43;4.10;;;;;;;18.56;36.32;97878.72;5043210;28;20696;-58
2022/04/29 11:31:12;;;;;;;4.57;4.00;;;;;;;18.73;38.60;97877.09;5023060;28;20497;-59
2022/04/29 11:33:42;;;;;;;4.00;3.80;;;;;;;18.39;39.15;97875.72;5024184;28;20203;-58
2022/04/29 11:36:11;;;;;;;4.27;3.93;;;;;;;18.49;39.04;97874.22;5044142;28;20314;-57
2022/04/29 11:38:44;;;;;;;4.70;4.07;;;;;;;18.19;38.23;97861.44;5022450;28;20199;-49
2022/04/29 11:41:17;;;;;;;4.10;3.70;;;;;;;18.52;39.38;97868.41;5037557;28;20206;-61
2022/04/29 11:43:47;;;;;;;5.37;4.10;;;;;;;18.46;36.15;97869.28;5021750;28;20211;-61
2022/04/29 11:46:15;;;;;;;3.73;3.53;;;;;;;18.72;36.66;97855.88;5024987;28;20272;-59
2022/04/29 11:48:56;;;;;;;3.97;3.70;;;;;;;18.67;38.35;97864.56;5022163;28;20908;-61
2022/04/29 11:51:24;;;;;;;3.73;3.53;;;;;;;18.99;39.26;97850.28;5026227;28;20202;-59
2022/04/29 11:53:54;;;;;;;4.77;4.37;;;;;;;19.05;39.10;97842.13;5021527;28;20211;-60
2022/04/29 11:56:22;;;;;;;6.00;4.67;;;;;;;19.32;39.54;97846.41;5039957;28;20207;-57
2022/04/29 11:58:53;;;;;;;4.67;4.37;;;;;;;19.48;37.88;97836.91;5005396;28;20255;-57
2022/04/29 12:01:22;;;;;;;4.87;4.40;;;;;;;19.56;37.55;97835.78;5023382;28;20203;-58
2022/04/29 12:03:50;;;;;;;5.53;4.17;;;;;;;19.90;35.25;97828.09;5033263;28;20214;-58
2022/04/29 12:06:20;;;;;;;3.80;3.60;;;;;;;20.39;37.14;97822.66;5022979;28;21049;-53